• Join FlightAware (Why Join?)
  • Login
  • US Flag 
03:22AM EST


 

Airport Tracker/Info


-or-


 

Live Flight TrackerFlight Track Log ✈ THY2190 ✈ 14-Jul-2013 ✈ LTBA / IST - LTAC / ESB

Flight Track Log - Related Links

Times and Time Zones

All times are in EDT time to prevent confusion due to time zone crossing. See the THY2190 flight status page for this flight to view local times or setup timezone preferences in your user account.

Time Position Orientation Groundspeed Altitude Reporting Facility
EDT Latitude Longitude Course Direction KTS MPH feet Rate Location/Type
04:55PM 40.9820 28.8150 253° West 5 6  Level FlightAware
04:55PM 40.9820 28.8140 270° West 6 7 180 Level FlightAware
04:58PM 40.9462 29.0079 104° East  Level Estimated
04:59PM 40.9287 29.1016 104° East  Level Estimated
05:00PM 40.9112 29.1953 104° East  Level Estimated
05:00PM 40.9830 28.8140 104° East 7 8  Level FlightAware
05:01PM 40.9850 28.8140 360° North 13 15 360 Level FlightAware
05:02PM 40.9850 28.8120 270° West 19 22 360 Level FlightAware
05:03PM 40.9820 28.8120 180° South 28 32 480 Level FlightAware
05:03PM 40.9800 28.8120 180° South 28 32 480 Level FlightAware
05:04PM 40.9760 28.8120 180° South 19 22 540 Level FlightAware
05:07PM 40.9310 29.0575 104° East  Level Estimated
05:08PM 40.9136 29.1513 104° East  Level Estimated
05:08PM 40.9840 28.8060 104° East 200  Level FlightAware
05:09PM 41.0500 28.8070 North 213 245 3,400 2,640 Climbing FlightAware
05:09PM 41.0740 28.8150 14° North 216 249 4,900 3,120 Climbing FlightAware
05:10PM 41.0820 28.8280 51° Northeast 223 257 5,500 2,580 Climbing FlightAware
05:10PM 41.0870 28.8520 75° East 252 290 6,200 2,760 Climbing FlightAware
05:10PM 41.0900 28.8780 81° East 263 303 6,900 1,800 Climbing FlightAware
05:11PM 41.1000 28.9510 80° East 289 333 8,000 2,880 Climbing FlightAware
05:12PM 41.0960 29.0170 95° East 319 367 10,800 3,120 Climbing FlightAware
05:12PM 41.0520 29.1090 122° Southeast 366 421 12,400 2,400 Climbing FlightAware
05:13PM 41.0160 29.1910 120° Southeast 377 434 14,400 2,700 Climbing FlightAware
05:14PM 40.9850 29.2640 119° Southeast 395 455 15,800 2,520 Climbing FlightAware
05:14PM 40.9490 29.3480 120° Southeast 397 457 17,600 2,340 Climbing FlightAware
05:15PM 40.9060 29.4460 120° Southeast 418 481 19,200 2,160 Climbing FlightAware
05:16PM 40.8710 29.5240 121° Southeast 427 491 20,500 2,460 Climbing FlightAware
05:16PM 40.8310 29.6160 120° Southeast 426 490 22,300 2,220 Climbing FlightAware
05:17PM 40.7960 29.6960 120° Southeast 427 491 23,500 1,980 Climbing FlightAware
05:18PM 40.7520 29.7960 120° Southeast 411 473 25,000 1,080 Climbing FlightAware
05:18PM 40.7140 29.8810 121° Southeast 412 474 25,000  Level FlightAware
05:19PM 40.6710 29.9790 120° Southeast 413 475 25,000  Level FlightAware
05:20PM 40.6320 30.0660 121° Southeast 413 475 25,000  Level FlightAware
05:20PM 40.5890 30.1620 121° Southeast 413 475 25,000  Level FlightAware
05:21PM 40.5570 30.2330 121° Southeast 415 478 25,000  Level FlightAware
05:22PM 40.5110 30.3370 120° Southeast 415 478 25,000  Level FlightAware
05:22PM 40.4710 30.4250 121° Southeast 414 476 25,000  Level FlightAware
05:23PM 40.4450 30.4820 121° Southeast 415 478 25,000  Level FlightAware
05:24PM 40.4000 30.5810 121° Southeast 416 479 25,000  Level FlightAware
05:24PM 40.3530 30.6840 121° Southeast 416 479 25,000 -180 Level FlightAware
05:25PM 40.3090 30.8100 115° Southeast 417 480 24,800 -600 Descending FlightAware
05:26PM 40.2990 30.9080 98° East 400 460 24,100 -1,380 Descending FlightAware
05:27PM 40.2900 30.9950 98° East 393 452 23,000 -1,620 Descending FlightAware
05:28PM 40.2740 31.1480 98° East 380 437 21,300 -1,140 Descending FlightAware
05:28PM 40.2670 31.2180 97° East 377 434 21,200 -1,140 Descending FlightAware
05:29PM 40.2550 31.3280 98° East 370 426 19,800 -1,440 Descending FlightAware
05:30PM 40.2460 31.4130 98° East 371 427 19,100 -1,320 Descending FlightAware
05:31PM 40.2320 31.5370 98° East 358 412 17,800 -1,440 Descending FlightAware
05:31PM 40.2230 31.6200 98° East 353 406 16,900 -1,500 Descending FlightAware
05:32PM 40.2140 31.7030 98° East 345 397 15,900 -900 Descending FlightAware
05:33PM 40.2050 31.7820 98° East 345 397 15,700 -180 Descending FlightAware
05:33PM 40.1980 31.8450 98° East 345 397 15,700  Level FlightAware
05:34PM 40.1900 31.9260 97° East 345 397 15,700 -3,060 Level FlightAware
05:35PM 40.1400 32.0370 120° Southeast 325 374 11,100 -3,960 Descending FlightAware
05:36PM 40.1220 32.1140 107° East 312 359 10,200 -1,440 Descending FlightAware
05:36PM 40.1120 32.1580 107° East 311 358 9,600 -1,320 Descending FlightAware
05:36PM 40.0990 32.2140 107° East 298 343 9,000 -720 Descending FlightAware
05:37PM 40.0890 32.2550 108° East 299 344 9,000  Level FlightAware
05:37PM 40.0790 32.2980 107° East 296 341 9,000  Level FlightAware
05:38PM 40.0670 32.3510 106° East 296 341 9,000 -240 Level FlightAware
05:38PM 40.0540 32.4020 108° East 296 341 8,800 -480 Descending FlightAware
05:39PM 40.0440 32.4460 107° East 278 320 8,600 -540 Descending FlightAware
05:39PM 40.0370 32.4770 106° East 262 302 8,400 -660 Descending FlightAware
05:39PM 40.0310 32.5030 107° East 254 292 8,200 -540 Descending FlightAware
05:40PM 40.0200 32.5500 107° East 250 288 8,000 -240 Descending FlightAware
05:40PM 40.0090 32.5950 108° East 252 290 8,000 -240 Level FlightAware
05:41PM 40.0010 32.6300 107° East 253 291 7,800 -780 Descending FlightAware
05:41PM 39.9900 32.6740 108° East 244 281 7,300 -1,020 Descending FlightAware
05:42PM 39.9810 32.7140 106° East 242 278 6,800 -900 Descending FlightAware
05:42PM 39.9720 32.7500 108° East 239 275 6,500 -360 Descending FlightAware
05:43PM 39.9640 32.7860 106° East 241 277 6,500 -120 Level FlightAware
05:43PM 39.9570 32.8180 106° East 241 277 6,400 -300 Descending FlightAware
05:44PM 39.9800 32.8560 52° Northeast 216 249 6,200 -720 Descending FlightAware
05:44PM 40.0000 32.8750 36° Northeast 204 235 5,700 -1,200 Descending FlightAware
05:44PM 40.0120 32.8860 35° Northeast 200 230 5,400 -960 Descending FlightAware
05:45PM 40.0320 32.9050 36° Northeast 163 188 5,000 -720 Descending FlightAware
05:45PM 40.0390 32.9110 33° Northeast 144 166 4,900 -900 Descending FlightAware
05:45PM 40.0510 32.9240 40° Northeast 134 154 4,500 -900 Descending FlightAware
05:46PM 40.0680 32.9400 36° Northeast 132 152 4,100 -600 Descending FlightAware
05:46PM 40.0820 32.9530 35° Northeast 131 151 3,900 -660 Descending FlightAware
05:47PM 40.0950 32.9660 37° Northeast 131 151 3,500 -480 Descending FlightAware
05:47PM 40.1070 32.9770 35° Northeast 131 151 3,500  Level FlightAware
05:50PM 40.1281 32.9951 33° Northeast  Level Estimated
05:51PM 40.1281 32.9951 49° Northeast  Level Estimated
05:52PM 40.1281 32.9951 49° Northeast  Level Estimated
05:53PM 40.1281 32.9951 49° Northeast  Level Estimated
05:54PM 40.1281 32.9951 49° Northeast  Level Estimated
05:55PM 40.1281 32.9951 49° Northeast  Level Estimated
05:56PM 40.1281 32.9951 49° Northeast  Level Estimated
05:57PM 40.1281 32.9951 49° Northeast  Level Estimated
05:58PM 40.1281 32.9951 49° Northeast  Level Estimated
05:59PM 40.1281 32.9951 49° Northeast  Level Estimated